createdAt,value
2019-04-04T00:00:16.244Z,15.90
2019-04-04T00:02:49.813Z,15.40
2019-04-04T00:05:38.726Z,16.13
2019-04-04T00:08:09.222Z,17.00
2019-04-04T00:10:42.232Z,16.80
2019-04-04T00:13:14.649Z,16.10
2019-04-04T00:15:45.599Z,16.10
2019-04-04T00:18:16.782Z,17.43
2019-04-04T00:20:47.595Z,18.23
2019-04-04T00:23:17.904Z,15.63
2019-04-04T00:25:48.621Z,17.20
2019-04-04T00:28:19.537Z,17.60
2019-04-04T00:30:50.298Z,18.47
2019-04-04T00:33:23.838Z,17.27
2019-04-04T00:35:54.939Z,18.10
2019-04-04T00:38:25.802Z,17.67
2019-04-04T00:40:56.650Z,16.97
2019-04-04T00:43:26.961Z,16.93
2019-04-04T00:46:00.414Z,17.60
2019-04-04T00:48:34.059Z,16.67
2019-04-04T00:51:07.722Z,17.83
2019-04-04T00:53:36.874Z,17.47
2019-04-04T00:56:07.734Z,18.07
2019-04-04T00:58:39.421Z,17.17
2019-04-04T01:01:10.145Z,18.30
2019-04-04T01:03:40.617Z,17.33
2019-04-04T01:06:11.129Z,16.80
2019-04-04T01:08:42.057Z,18.20
2019-04-04T01:11:12.612Z,19.43
2019-04-04T01:13:43.547Z,19.53
2019-04-04T01:16:14.202Z,19.57
2019-04-04T01:18:45.025Z,20.40
2019-04-04T01:21:15.946Z,20.53
2019-04-04T01:23:46.786Z,19.63
2019-04-04T01:26:17.706Z,19.63
2019-04-04T01:28:48.238Z,17.73
2019-04-04T01:31:18.987Z,19.43
2019-04-04T01:33:51.652Z,18.57
2019-04-04T01:36:23.164Z,20.60
2019-04-04T01:38:54.173Z,19.53
2019-04-04T01:41:24.845Z,19.80
2019-04-04T01:44:04.529Z,20.83
2019-04-04T01:46:27.620Z,20.17
2019-04-04T01:48:58.591Z,19.63
2019-04-04T01:51:29.001Z,18.10
2019-04-04T01:54:01.048Z,18.57
2019-04-04T01:56:31.860Z,19.77
2019-04-04T01:59:02.697Z,16.60
2019-04-04T02:01:34.283Z,17.97
2019-04-04T02:04:05.252Z,17.00
2019-04-04T02:06:35.842Z,18.93
2019-04-04T02:09:08.082Z,19.10
2019-04-04T02:11:41.541Z,18.77
2019-04-04T02:14:12.741Z,18.93
2019-04-04T02:16:43.371Z,19.93
2019-04-04T02:19:13.972Z,20.33
2019-04-04T02:21:44.392Z,20.17
2019-04-04T02:24:16.361Z,20.97
2019-04-04T02:26:46.889Z,20.43
2019-04-04T02:29:17.486Z,21.13
2019-04-04T02:31:53.760Z,22.73
2019-04-04T02:34:24.107Z,21.93
2019-04-04T02:36:54.638Z,24.07
2019-04-04T02:39:25.246Z,25.60
2019-04-04T02:41:55.992Z,25.50
2019-04-04T02:44:26.701Z,24.63
2019-04-04T02:46:57.300Z,25.37
2019-04-04T02:49:29.366Z,23.70
2019-04-04T02:52:00.148Z,25.40
2019-04-04T02:54:30.812Z,24.00
2019-04-04T02:57:01.867Z,25.97
2019-04-04T02:59:32.397Z,27.07
2019-04-04T03:02:05.859Z,27.00
2019-04-04T03:04:35.704Z,27.07
2019-04-04T03:07:06.787Z,26.93
2019-04-04T03:09:42.176Z,28.60
2019-04-04T03:12:09.707Z,28.63
2019-04-04T03:14:42.176Z,30.97
2019-04-04T03:17:12.978Z,29.60
2019-04-04T03:19:44.677Z,30.80
2019-04-04T03:22:18.904Z,30.30
2019-04-04T03:24:50.531Z,32.40
2019-04-04T03:27:25.768Z,30.40
2019-04-04T03:29:54.767Z,31.07
2019-04-04T03:32:25.349Z,30.07
2019-04-04T03:34:56.279Z,29.93
2019-04-04T03:37:26.959Z,29.47
2019-04-04T03:39:57.652Z,28.37
2019-04-04T03:42:29.278Z,27.13
2019-04-04T03:44:59.885Z,28.03
2019-04-04T03:47:30.613Z,28.77
2019-04-04T03:50:01.568Z,26.40
2019-04-04T03:52:32.200Z,27.13
2019-04-04T03:55:02.649Z,26.73
2019-04-04T03:57:33.236Z,29.70
2019-04-04T04:00:07.076Z,30.27
2019-04-04T04:02:36.584Z,30.57
2019-04-04T04:05:24.651Z,30.80
2019-04-04T04:07:55.461Z,32.30
2019-04-04T04:10:26.094Z,29.97
2019-04-04T04:12:57.021Z,28.80
2019-04-04T04:15:30.373Z,29.07
2019-04-04T04:17:59.883Z,27.30
2019-04-04T04:20:30.688Z,27.80
2019-04-04T04:23:01.521Z,28.87
2019-04-04T04:25:35.324Z,25.67
2019-04-04T04:28:04.527Z,26.63
2019-04-04T04:30:39.283Z,29.77
2019-04-04T04:33:08.293Z,30.87
2019-04-04T04:35:41.906Z,30.13
2019-04-04T04:38:11.955Z,31.50
2019-04-04T04:40:46.941Z,29.43
2019-04-04T04:43:16.079Z,27.87
2019-04-04T04:45:46.957Z,29.20
2019-04-04T04:48:19.641Z,27.53
2019-04-04T04:50:50.855Z,27.87
2019-04-04T04:53:21.330Z,25.27
2019-04-04T04:55:52.203Z,26.93
2019-04-04T04:58:23.077Z,28.67
2019-04-04T05:00:53.835Z,29.50
2019-04-04T05:03:24.855Z,28.73
2019-04-04T05:05:55.631Z,30.00
2019-04-04T05:08:26.812Z,30.93
2019-04-04T05:10:57.838Z,31.37
2019-04-04T05:13:28.975Z,33.77
2019-04-04T05:15:59.797Z,32.50
2019-04-04T05:18:30.347Z,30.43
2019-04-04T05:21:02.654Z,29.30
2019-04-04T05:23:33.386Z,29.30
2019-04-04T05:26:09.567Z,30.70
2019-04-04T05:28:41.827Z,30.23
2019-04-04T05:31:12.047Z,30.50
2019-04-04T05:33:44.066Z,28.70
2019-04-04T05:36:15.552Z,29.77
2019-04-04T05:38:47.295Z,32.63
2019-04-04T05:41:19.178Z,29.20
2019-04-04T05:43:50.026Z,30.20
2019-04-04T05:46:24.985Z,29.97
2019-04-04T05:48:57.691Z,29.97
2019-04-04T05:51:29.036Z,29.90
2019-04-04T05:54:06.981Z,28.53
2019-04-04T05:56:37.881Z,30.63
2019-04-04T05:59:09.129Z,29.03
2019-04-04T06:01:43.260Z,31.40
2019-04-04T06:04:14.444Z,28.83
2019-04-04T06:06:55.802Z,29.83
2019-04-04T06:09:28.068Z,27.20
2019-04-04T06:12:06.069Z,26.60
2019-04-04T06:14:37.338Z,27.20
2019-04-04T06:17:09.360Z,26.57
2019-04-04T06:19:44.355Z,26.97
2019-04-04T06:22:14.517Z,28.17
2019-04-04T06:24:48.167Z,28.77
2019-04-04T06:27:18.847Z,27.47
2019-04-04T06:29:51.514Z,27.30
2019-04-04T06:32:23.147Z,28.53
2019-04-04T06:34:56.644Z,26.83
2019-04-04T06:37:27.708Z,26.53
2019-04-04T06:39:59.574Z,28.30
2019-04-04T06:42:35.680Z,26.37
2019-04-04T06:45:03.651Z,26.43
2019-04-04T06:47:35.959Z,26.53
2019-04-04T06:50:08.567Z,27.00
2019-04-04T06:52:41.150Z,25.93
2019-04-04T06:55:13.184Z,26.00
2019-04-04T06:57:53.797Z,25.90
2019-04-04T07:00:29.237Z,23.93
2019-04-04T07:03:03.056Z,26.00
2019-04-04T07:05:37.936Z,23.87
2019-04-04T07:08:07.973Z,26.73
2019-04-04T07:10:40.876Z,26.20
2019-04-04T07:13:22.213Z,24.23
2019-04-04T07:16:03.476Z,24.70
2019-04-04T07:18:21.888Z,22.50
2019-04-04T07:20:52.937Z,25.70
2019-04-04T07:23:27.364Z,22.87
2019-04-04T07:25:56.597Z,23.93
2019-04-04T07:28:30.611Z,25.23
2019-04-04T07:31:04.726Z,25.67
2019-04-04T07:33:37.009Z,25.03
2019-04-04T07:36:09.727Z,25.27
2019-04-04T07:38:41.034Z,24.40
2019-04-04T07:41:16.257Z,25.20
2019-04-04T07:43:51.354Z,24.03
2019-04-04T07:46:23.742Z,23.47
2019-04-04T07:48:55.694Z,24.13
2019-04-04T07:51:28.133Z,24.90
2019-04-04T07:54:01.545Z,25.47
2019-04-04T07:56:33.007Z,24.90
2019-04-04T07:59:04.351Z,24.37
2019-04-04T08:01:35.158Z,26.97
2019-04-04T08:04:10.441Z,24.93
2019-04-04T08:06:45.324Z,24.87
2019-04-04T08:09:16.564Z,24.67
2019-04-04T08:11:49.057Z,23.83
2019-04-04T08:14:21.928Z,25.23
2019-04-04T08:16:53.715Z,25.27
2019-04-04T08:19:27.705Z,26.53
2019-04-04T08:21:59.100Z,24.80
2019-04-04T08:24:35.763Z,25.67
2019-04-04T08:27:07.089Z,25.00
2019-04-04T08:29:39.529Z,26.47
2019-04-04T08:32:14.112Z,24.97
2019-04-04T08:34:45.774Z,26.30
2019-04-04T08:37:17.088Z,25.47
2019-04-04T08:39:49.300Z,25.43
2019-04-04T08:42:21.771Z,25.63
2019-04-04T08:44:56.563Z,23.40
2019-04-04T08:47:28.218Z,26.50
2019-04-04T08:49:59.919Z,24.83
2019-04-04T08:52:46.498Z,24.50
2019-04-04T08:55:19.690Z,25.63
2019-04-04T08:57:50.746Z,24.60
2019-04-04T09:00:22.838Z,26.33
2019-04-04T09:02:55.254Z,25.93
2019-04-04T09:05:27.581Z,26.53
2019-04-04T09:07:58.615Z,26.07
2019-04-04T09:10:30.552Z,25.00
2019-04-04T09:13:04.732Z,24.23
2019-04-04T09:15:38.674Z,26.17
2019-04-04T09:18:24.659Z,26.90
2019-04-04T09:21:01.359Z,27.10
2019-04-04T09:23:29.588Z,26.90
2019-04-04T09:26:05.738Z,28.27
2019-04-04T09:28:34.981Z,27.17
2019-04-04T09:31:06.773Z,27.57
2019-04-04T09:33:38.368Z,27.33
2019-04-04T09:36:14.060Z,26.13
2019-04-04T09:38:46.253Z,25.73
2019-04-04T09:41:18.330Z,27.23
2019-04-04T09:43:52.084Z,27.97
2019-04-04T09:46:26.232Z,28.17
2019-04-04T09:48:57.685Z,26.73
2019-04-04T09:51:32.150Z,29.20
2019-04-04T09:54:03.754Z,31.97
2019-04-04T09:56:35.670Z,30.03
2019-04-04T09:59:08.330Z,30.13
2019-04-04T10:01:40.415Z,29.97
2019-04-04T10:04:12.337Z,27.50
2019-04-04T10:06:44.917Z,26.23
2019-04-04T10:09:59.084Z,26.87
2019-04-04T10:12:31.633Z,27.27
2019-04-04T10:15:04.606Z,25.73
2019-04-04T10:17:40.027Z,27.90
2019-04-04T10:20:15.845Z,27.90
2019-04-04T10:22:50.253Z,29.90
2019-04-04T10:25:22.471Z,28.40
2019-04-04T10:27:54.576Z,26.83
2019-04-04T10:30:28.933Z,27.93
2019-04-04T10:33:06.618Z,27.60
2019-04-04T10:35:45.144Z,27.17
2019-04-04T10:38:17.164Z,26.37
2019-04-04T10:40:54.390Z,26.93
2019-04-04T10:43:26.154Z,28.60
2019-04-04T10:46:00.079Z,29.20
2019-04-04T10:48:33.204Z,27.53
2019-04-04T10:51:05.369Z,29.17
2019-04-04T10:53:37.145Z,28.13
2019-04-04T10:56:08.787Z,27.80
2019-04-04T10:58:40.404Z,23.77
2019-04-04T11:01:11.605Z,24.53
2019-04-04T11:03:45.030Z,23.40
2019-04-04T11:06:16.771Z,23.30
2019-04-04T11:08:50.833Z,22.97
2019-04-04T11:11:27.470Z,21.53
2019-04-04T11:13:58.419Z,22.10
2019-04-04T11:19:01.624Z,21.63
2019-04-04T11:21:32.273Z,23.37
2019-04-04T11:23:46.535Z,21.60
2019-04-04T11:24:03.026Z,24.80
2019-04-04T11:26:34.605Z,22.83
2019-04-04T11:29:05.795Z,24.23
2019-04-04T11:31:36.384Z,22.60
2019-04-04T11:34:06.911Z,24.73
2019-04-04T11:36:37.704Z,24.90
2019-04-04T11:39:09.374Z,24.70
2019-04-04T11:41:40.445Z,26.30
2019-04-04T11:44:11.301Z,25.37
2019-04-04T11:46:41.853Z,26.40
2019-04-04T11:49:12.565Z,25.83
2019-04-04T11:51:43.599Z,25.83
2019-04-04T11:54:14.353Z,27.23
2019-04-04T11:56:45.645Z,26.33
2019-04-04T11:59:16.754Z,26.37
2019-04-04T12:01:47.806Z,26.53
2019-04-04T12:04:19.603Z,26.50
2019-04-04T12:06:50.736Z,29.23
2019-04-04T12:09:21.644Z,27.53
2019-04-04T12:11:52.511Z,27.90
2019-04-04T12:14:23.493Z,25.90
2019-04-04T12:16:54.555Z,29.60
2019-04-04T12:19:25.146Z,28.27
2019-04-04T12:21:55.895Z,26.83
2019-04-04T12:24:27.085Z,29.30
2019-04-04T12:27:09.344Z,29.80
2019-04-04T12:29:40.009Z,29.30
2019-04-04T12:32:10.661Z,29.93
2019-04-04T12:34:41.424Z,31.37
2019-04-04T12:37:12.801Z,31.50
2019-04-04T12:39:44.556Z,32.67
2019-04-04T12:42:15.500Z,31.10
2019-04-04T12:44:46.178Z,34.10
2019-04-04T12:47:16.769Z,34.87
2019-04-04T12:49:48.075Z,35.10
2019-04-04T12:52:19.588Z,37.77
2019-04-04T12:54:50.470Z,39.27
2019-04-04T12:57:21.199Z,38.30
2019-04-04T12:59:52.070Z,39.50
2019-04-04T13:02:23.669Z,40.77
2019-04-04T13:04:54.733Z,41.17
2019-04-04T13:07:25.344Z,40.90
2019-04-04T13:09:56.515Z,41.57
2019-04-04T13:12:27.703Z,41.47
2019-04-04T13:14:58.768Z,41.37
2019-04-04T13:17:29.742Z,40.60
2019-04-04T13:20:00.645Z,45.03
2019-04-04T13:22:31.330Z,44.83
2019-04-04T13:25:02.594Z,44.13
2019-04-04T13:27:33.799Z,43.53
2019-04-04T13:30:07.393Z,45.70
2019-04-04T13:32:38.312Z,44.67
2019-04-04T13:35:10.118Z,42.83
2019-04-04T13:37:41.296Z,41.37
2019-04-04T13:40:15.353Z,41.37
2019-04-04T13:42:52.723Z,40.60
2019-04-04T13:45:24.896Z,40.63
2019-04-04T13:47:55.110Z,41.53
2019-04-04T13:50:25.992Z,40.77
2019-04-04T13:52:56.722Z,42.43
2019-04-04T13:55:28.614Z,40.57
2019-04-04T13:57:59.507Z,38.57
2019-04-04T14:00:31.358Z,39.57
2019-04-04T14:03:02.714Z,39.83
2019-04-04T14:05:33.445Z,41.50
2019-04-04T14:08:04.244Z,38.97
2019-04-04T14:10:34.725Z,40.73
2019-04-04T14:13:06.890Z,40.50
2019-04-04T14:15:38.120Z,39.17
2019-04-04T14:18:22.816Z,37.57
2019-04-04T14:21:03.883Z,39.30
2019-04-04T14:23:31.455Z,40.40
2019-04-04T14:26:02.199Z,41.83
2019-04-04T14:28:35.839Z,42.10
2019-04-04T14:31:07.476Z,40.90
2019-04-04T14:33:38.612Z,41.70
2019-04-04T14:36:11.439Z,39.97
2019-04-04T14:38:42.140Z,38.90
2019-04-04T14:41:12.987Z,39.67
2019-04-04T14:43:44.191Z,40.50
2019-04-04T14:46:15.424Z,40.67
2019-04-04T14:48:46.750Z,41.50
2019-04-04T14:51:17.816Z,38.87
2019-04-04T14:53:48.635Z,37.93
2019-04-04T14:56:19.425Z,37.90
2019-04-04T14:58:50.368Z,36.50
2019-04-04T15:01:21.279Z,36.07
2019-04-04T15:03:52.450Z,35.73
2019-04-04T15:06:27.018Z,33.97
2019-04-04T15:08:58.151Z,35.13
2019-04-04T15:11:29.721Z,30.03
2019-04-04T15:14:00.635Z,31.47
2019-04-04T15:16:34.491Z,33.17
2019-04-04T15:19:05.997Z,31.27
2019-04-04T15:21:37.299Z,33.80
2019-04-04T15:24:08.727Z,33.77
2019-04-04T15:26:38.874Z,35.90
2019-04-04T15:29:11.410Z,33.70
2019-04-04T15:31:42.692Z,30.37
2019-04-04T15:34:13.610Z,32.60
2019-04-04T15:36:44.975Z,31.37
2019-04-04T15:39:16.180Z,33.33
2019-04-04T15:41:47.597Z,32.30
2019-04-04T15:44:20.673Z,32.00
2019-04-04T15:46:51.682Z,31.67
2019-04-04T15:49:25.489Z,32.77
2019-04-04T15:51:59.422Z,31.73
2019-04-04T15:54:30.480Z,30.80
2019-04-04T15:57:07.867Z,34.23
2019-04-04T15:59:39.468Z,30.83
2019-04-04T16:02:10.901Z,31.73
2019-04-04T16:04:42.366Z,31.77
2019-04-04T16:07:13.831Z,33.80
2019-04-04T16:09:44.672Z,34.30
2019-04-04T16:12:15.885Z,32.33
2019-04-04T16:14:46.838Z,31.17
2019-04-04T16:17:24.205Z,35.23
2019-04-04T16:19:55.477Z,35.10
2019-04-04T16:22:26.509Z,37.03
2019-04-04T16:25:19.045Z,35.07
2019-04-04T16:27:51.226Z,35.50
2019-04-04T16:30:22.379Z,35.30
2019-04-04T16:32:53.104Z,35.13
2019-04-04T16:35:24.075Z,36.90
2019-04-04T16:37:55.403Z,34.83
2019-04-04T16:40:26.240Z,35.47
2019-04-04T16:42:59.785Z,34.10
2019-04-04T16:45:31.371Z,35.77
2019-04-04T16:48:02.687Z,33.87
2019-04-04T16:50:33.576Z,32.83
2019-04-04T16:53:05.244Z,30.57
2019-04-04T16:55:39.172Z,34.80
2019-04-04T16:58:10.092Z,32.67
2019-04-04T17:00:40.938Z,35.93
2019-04-04T17:03:12.726Z,34.37
2019-04-04T17:05:47.394Z,34.10
2019-04-04T17:08:21.618Z,32.00
2019-04-04T17:10:53.487Z,32.07
2019-04-04T17:13:24.950Z,32.57
2019-04-04T17:15:56.736Z,32.40
2019-04-04T17:18:27.841Z,30.27
2019-04-04T17:20:58.576Z,33.50
2019-04-04T17:23:29.703Z,32.90
2019-04-04T17:26:01.856Z,32.37
2019-04-04T17:28:33.015Z,31.30
2019-04-04T17:31:07.013Z,33.00
2019-04-04T17:33:38.224Z,32.63
2019-04-04T17:36:09.701Z,31.07
2019-04-04T17:38:40.856Z,33.60
2019-04-04T17:41:12.077Z,32.17
2019-04-04T17:43:45.076Z,31.57
2019-04-04T17:46:15.888Z,31.80
2019-04-04T17:48:47.384Z,49.57
2019-04-04T17:51:19.170Z,34.10
2019-04-04T17:53:52.776Z,34.70
2019-04-04T17:56:23.834Z,34.03
2019-04-04T17:58:56.118Z,31.27
2019-04-04T18:01:27.132Z,32.87
2019-04-04T18:03:58.710Z,37.07
2019-04-04T18:06:29.936Z,36.23
2019-04-04T18:09:01.919Z,37.00
2019-04-04T18:11:34.707Z,34.63
2019-04-04T18:14:06.053Z,35.13
2019-04-04T18:16:37.885Z,32.63
2019-04-04T18:19:09.127Z,33.83
2019-04-04T18:21:40.510Z,34.73
2019-04-04T18:24:11.096Z,33.70
2019-04-04T18:26:41.807Z,34.77
2019-04-04T18:29:13.567Z,36.10
2019-04-04T18:31:44.380Z,34.50
2019-04-04T18:34:15.498Z,36.83
2019-04-04T18:36:46.236Z,34.67
2019-04-04T18:39:16.854Z,37.60
2019-04-04T18:41:47.651Z,35.03
2019-04-04T18:44:19.231Z,33.33
2019-04-04T18:46:50.088Z,35.93
2019-04-04T18:49:21.690Z,36.17
2019-04-04T18:51:53.168Z,36.33
2019-04-04T18:54:24.618Z,35.20
2019-04-04T18:56:58.536Z,34.13
2019-04-04T18:59:30.042Z,35.07
2019-04-04T19:02:01.162Z,32.67
2019-04-04T19:04:33.442Z,34.93
2019-04-04T19:07:05.521Z,37.20
2019-04-04T19:09:36.347Z,37.03
2019-04-04T19:12:07.382Z,31.90
2019-04-04T19:14:37.826Z,33.63
2019-04-04T19:17:08.770Z,33.20
2019-04-04T19:19:40.519Z,34.33
2019-04-04T19:22:11.644Z,32.20
2019-04-04T19:24:42.975Z,36.53
2019-04-04T19:27:13.684Z,34.50
2019-04-04T19:29:44.515Z,37.30
2019-04-04T19:32:15.866Z,37.27
2019-04-04T19:34:46.605Z,36.50
2019-04-04T19:37:17.591Z,38.23
2019-04-04T19:39:48.689Z,37.17
2019-04-04T19:42:19.848Z,36.47
2019-04-04T19:44:53.485Z,36.40
2019-04-04T19:47:23.066Z,32.90
2019-04-04T19:49:54.054Z,37.33
2019-04-04T19:52:25.149Z,35.90
2019-04-04T19:54:56.454Z,36.23
2019-04-04T19:57:27.419Z,37.97
2019-04-04T19:59:58.625Z,37.60
2019-04-04T20:02:29.355Z,39.53
2019-04-04T20:05:00.329Z,35.47
2019-04-04T20:07:31.013Z,38.83
2019-04-04T20:10:01.566Z,36.10
2019-04-04T20:12:32.447Z,38.00
2019-04-04T20:15:03.108Z,36.60
2019-04-04T20:17:34.132Z,36.37
2019-04-04T20:20:05.958Z,36.03
2019-04-04T20:22:36.787Z,39.63
2019-04-04T20:25:08.106Z,38.33
2019-04-04T20:27:39.043Z,38.90
2019-04-04T20:30:10.581Z,39.37
2019-04-04T20:32:42.121Z,38.40
2019-04-04T20:35:12.715Z,39.77
2019-04-04T20:37:43.370Z,41.33
2019-04-04T20:40:14.127Z,40.00
2019-04-04T20:42:44.653Z,36.00
2019-04-04T20:45:15.642Z,36.70
2019-04-04T20:47:56.939Z,39.40
2019-04-04T20:50:41.233Z,38.13
2019-04-04T20:53:16.584Z,38.67
2019-04-04T20:55:56.905Z,38.77
2019-04-04T20:58:29.278Z,38.97
2019-04-04T21:01:04.971Z,41.03
2019-04-04T21:03:44.995Z,38.67
2019-04-04T21:06:21.317Z,41.83
2019-04-04T21:08:56.462Z,41.33
2019-04-04T21:11:30.767Z,43.33
2019-04-04T21:14:05.045Z,41.17
2019-04-04T21:16:35.772Z,40.23
2019-04-04T21:19:06.168Z,40.40
2019-04-04T21:21:37.000Z,39.40
2019-04-04T21:24:07.443Z,41.83
2019-04-04T21:26:39.519Z,39.53
2019-04-04T21:29:10.216Z,38.67
2019-04-04T21:31:40.661Z,37.93
2019-04-04T21:34:11.192Z,39.13
2019-04-04T21:36:41.621Z,42.67
2019-04-04T21:39:12.086Z,38.50
2019-04-04T21:41:42.543Z,38.03
2019-04-04T21:44:13.169Z,40.33
2019-04-04T21:46:43.621Z,38.20
2019-04-04T21:49:15.142Z,36.80
2019-04-04T21:51:45.622Z,39.30
2019-04-04T21:54:16.025Z,39.10
2019-04-04T21:56:46.757Z,36.13
2019-04-04T21:59:17.154Z,36.27
2019-04-04T22:01:47.792Z,35.73
2019-04-04T22:04:18.210Z,37.83
2019-04-04T22:06:48.693Z,35.73
2019-04-04T22:09:19.452Z,35.33
2019-04-04T22:11:49.945Z,37.67
2019-04-04T22:14:22.309Z,34.63
2019-04-04T22:16:53.986Z,36.50
2019-04-04T22:19:24.448Z,36.97
2019-04-04T22:21:56.281Z,36.67
2019-04-04T22:24:26.657Z,36.43
2019-04-04T22:26:57.027Z,36.23
2019-04-04T22:29:27.588Z,37.07
2019-04-04T22:31:58.106Z,37.23
2019-04-04T22:34:28.683Z,36.83
2019-04-04T22:36:59.286Z,38.43
2019-04-04T22:39:29.885Z,39.00
2019-04-04T22:42:00.364Z,37.80
2019-04-04T22:44:35.099Z,41.20
2019-04-04T22:47:02.893Z,39.80
2019-04-04T22:49:33.263Z,39.87
2019-04-04T22:52:03.726Z,38.57
2019-04-04T22:54:34.284Z,38.50
2019-04-04T22:57:04.858Z,38.17
2019-04-04T22:59:35.438Z,40.23
2019-04-04T23:02:05.859Z,37.27
2019-04-04T23:04:36.293Z,37.97
2019-04-04T23:07:06.771Z,39.13
2019-04-04T23:09:37.164Z,37.53
2019-04-04T23:12:07.737Z,38.50
2019-04-04T23:14:48.113Z,38.80
2019-04-04T23:17:10.154Z,38.30
2019-04-04T23:19:40.487Z,40.57
2019-04-04T23:22:11.175Z,39.00
2019-04-04T23:24:41.561Z,38.57
2019-04-04T23:27:11.927Z,39.37
2019-04-04T23:29:43.512Z,41.77
2019-04-04T23:32:13.891Z,41.87
2019-04-04T23:34:44.526Z,40.07
2019-04-04T23:37:18.843Z,42.53
2019-04-04T23:39:49.341Z,41.83
2019-04-04T23:42:19.875Z,40.17
2019-04-04T23:45:09.571Z,41.60
2019-04-04T23:47:43.122Z,41.60
2019-04-04T23:50:12.395Z,40.37
2019-04-04T23:52:42.848Z,43.40
2019-04-04T23:55:14.302Z,41.57
2019-04-04T23:57:44.612Z,39.93
